Corpus Christi Naval Air Station/Truax Field
KNGP : now visible

Airfield :











YOU CAN JOIN US ON...

 
LOGIN :

Register | Disclaimer

   EN    FR    IT 

 









Legend :    VFR   Marginal VFR   IFR   Intensive IFR   Very Intensive IFR
Visi :
Ceiling :
>= 8 km
>= 3000ft
5 to 8 km
1000 to 3000 ft
1500m to 5 km
500 to 1000 ft
800 to 1500m
200 to 500 ft
< 800m
< 200 ft
Symbols :   Thunderstorms  Fog  Heavy snow  Heavy precipitations  Wind > 20 kt






- Airport Elevation : 18 ft


KNGP - Corpus Christi Naval Air Station/Truax Field

CURRENT METAR :
  • 271318Z 15010KT 6SM BR BKN006 OVC015 24/23 A2996 RMK AO2 RAE1259 P0000 T02440233 $

EXPIRED METARs :
  • 271256Z 15009KT 6SM -RA BR SCT007 OVC015 24/23 A2995 RMK AO2 RAB52 SLP142 P0000 T02440233 $
  • 271156Z 16010KT 8SM OVC007 24/23 A2993 RMK AO2 CIG 005V010 SLP134 T02440233 10250 20244 52005 $
  • 271056Z AUTO 16012KT 8SM OVC006 25/23 A2992 RMK AO2 SLP132 T02500233 $

TAF AMD TAF KNGP
Valid from the 27 at 08:00 until the 28 at 07:00 UTC


2708/2807 17010KT 9999 VCSH BKN012 OVC025 QNH2992INS
TEMPO 2708/2714 8000 -SHRA BKN008 OVC015
BECMG 2718/2720 13011KT 9999 VCTS BKN012 OVC025CB QNH2985INS
TEMPO 2722/2804 VRB25G35KT 4800 TSRA BKN005 OVC010CB AUTOMATED SENSOR METWATCH 2708 TIL 2712 T22/2713Z T29/2722Z AMD 0844 FN00205
KZHU FIR / North America



MET'MAP, your aeronautical weather chart ! - Copyright ORBIFLY December 2007 - Disclaimer

ORBIFLY MET'MAP TEAM :

Programming & Development : Alexandra Zaïnal
Concept & original design : Baudouin d'Aumeries
Assistance for programming : Marc-Olivier Méhu
Technical & hardware support : Manuel Goepfert

Contact : metmap@orbifly.com




SOURCES & CREDITS :

   NOAA       Earth
Advisory